EDLV/NRN METAR and TAF weather

Enter ICAO airport designator
Station Type Date Time Source
EDLV METAR 2018/12/10 19:50 UTC NOAA

EDLV 101950Z 29006KT 260V320 CAVOK 04/02 Q1023


Station Type Date Time Source
EDLV Decoded METAR 2018/12/10 19:50 UTC NOAA

Niederrhein, Germany (EDLV) 51-36-09N 006-08-32E
Dec 10, 2018 - 02:50 PM EST / 2018.12.10 1950 UTC
Wind: from the WNW (290 degrees) at 7 MPH (6 KT) (direction variable):0
Visibility: greater than 7 mile(s):0
Temperature: 39 F (4 C)
Dew Point: 35 F (2 C)
Relative Humidity: 86%
Pressure (altimeter): 30.21 in. Hg (1023 hPa)
ob: EDLV 101950Z 29006KT 260V320 CAVOK 04/02 Q1023
cycle: 20

Station Type Date Time Source
EDLV TAF 2018/12/10 23:03 UTC NOAA

TAF
AMD TAF
AMD EDLV 092350Z 0923/1018 CNL


Example: see airport list